createdAt,value
2022-08-26T00:01:13.772Z,17.50
2022-08-26T00:05:58.850Z,17.50
2022-08-26T00:10:43.150Z,17.40
2022-08-26T00:15:27.685Z,17.30
2022-08-26T00:20:14.312Z,17.20
2022-08-26T00:24:59.702Z,17.20
2022-08-26T00:29:43.269Z,17.20
2022-08-26T00:34:26.992Z,17.00
2022-08-26T00:39:11.098Z,17.00
2022-08-26T00:43:56.265Z,16.90
2022-08-26T00:48:44.090Z,16.70
2022-08-26T00:53:32.153Z,16.70
2022-08-26T00:58:15.835Z,16.60
2022-08-26T01:03:05.288Z,16.50
2022-08-26T01:07:51.495Z,16.50
2022-08-26T01:12:40.303Z,16.40
2022-08-26T01:17:24.482Z,16.40
2022-08-26T01:22:15.345Z,16.50
2022-08-26T01:27:03.620Z,16.40
2022-08-26T01:31:50.896Z,16.30
2022-08-26T01:36:35.153Z,16.20
2022-08-26T01:41:19.826Z,16.20
2022-08-26T01:46:13.408Z,16.20
2022-08-26T01:50:57.704Z,16.20
2022-08-26T01:55:45.023Z,16.20
2022-08-26T02:00:29.004Z,16.20
2022-08-26T02:05:18.567Z,16.30
2022-08-26T02:10:02.246Z,16.30
2022-08-26T02:14:52.156Z,16.20
2022-08-26T02:19:40.606Z,16.30
2022-08-26T02:24:27.856Z,16.30
2022-08-26T02:29:17.839Z,16.20
2022-08-26T02:34:10.770Z,16.30
2022-08-26T02:38:54.594Z,16.30
2022-08-26T02:43:40.823Z,16.20
2022-08-26T02:48:25.280Z,16.30
2022-08-26T02:53:10.144Z,16.30
2022-08-26T02:57:54.218Z,16.20
2022-08-26T03:02:40.341Z,16.30
2022-08-26T03:07:24.954Z,16.40
2022-08-26T03:12:09.508Z,16.40
2022-08-26T03:16:54.589Z,16.30
2022-08-26T03:21:40.321Z,16.20
2022-08-26T03:26:25.124Z,16.10
2022-08-26T03:31:08.605Z,16.20
2022-08-26T03:35:52.444Z,16.20
2022-08-26T03:40:38.059Z,16.20
2022-08-26T03:45:22.450Z,16.00
2022-08-26T03:50:06.754Z,16.00
2022-08-26T03:54:50.385Z,16.10
2022-08-26T03:59:35.313Z,16.10
2022-08-26T04:04:22.611Z,15.90
2022-08-26T04:09:10.871Z,15.90
2022-08-26T04:13:54.553Z,15.80
2022-08-26T04:18:40.611Z,15.70
2022-08-26T04:23:30.380Z,15.70
2022-08-26T04:28:15.045Z,15.70
2022-08-26T04:32:58.593Z,15.60
2022-08-26T04:37:44.186Z,15.60
2022-08-26T04:42:27.764Z,15.50
2022-08-26T04:47:11.388Z,15.40
2022-08-26T04:51:55.820Z,15.40
2022-08-26T04:56:43.142Z,15.40
2022-08-26T05:01:26.848Z,15.40
2022-08-26T05:06:12.525Z,15.40
2022-08-26T05:10:56.920Z,15.40
2022-08-26T05:15:42.148Z,15.40
2022-08-26T05:20:26.053Z,15.60
2022-08-26T05:25:10.675Z,15.60
2022-08-26T05:29:58.633Z,15.70
2022-08-26T05:34:43.675Z,15.90
2022-08-26T05:39:27.287Z,16.10
2022-08-26T05:44:12.848Z,16.60
2022-08-26T05:48:58.413Z,17.20
2022-08-26T05:53:54.723Z,17.80
2022-08-26T05:58:40.502Z,18.20
2022-08-26T06:03:24.016Z,18.70
2022-08-26T06:08:14.596Z,18.90
2022-08-26T06:13:03.231Z,19.30
2022-08-26T06:17:53.069Z,19.50
2022-08-26T06:22:53.970Z,19.90
2022-08-26T06:27:38.072Z,20.30
2022-08-26T06:32:24.440Z,20.70
2022-08-26T06:37:09.027Z,21.20
2022-08-26T06:41:52.674Z,21.20
2022-08-26T06:46:36.789Z,21.20
2022-08-26T06:51:24.952Z,20.90
2022-08-26T06:56:10.714Z,20.90
2022-08-26T07:01:00.671Z,20.90
2022-08-26T07:05:46.711Z,20.60
2022-08-26T07:10:34.573Z,21.00
2022-08-26T07:15:19.998Z,21.70
2022-08-26T07:20:11.959Z,21.70
2022-08-26T07:24:55.637Z,21.80
2022-08-26T07:29:45.894Z,22.50
2022-08-26T07:34:29.660Z,23.00
2022-08-26T07:39:13.265Z,23.40
2022-08-26T07:43:56.803Z,23.60
2022-08-26T07:48:46.169Z,24.20
2022-08-26T07:53:30.085Z,24.80
2022-08-26T07:58:13.634Z,24.80
2022-08-26T08:02:57.301Z,24.70
2022-08-26T08:07:44.891Z,25.50
2022-08-26T08:12:29.321Z,26.30
2022-08-26T08:17:13.027Z,26.70
2022-08-26T08:21:56.655Z,27.00
2022-08-26T08:26:42.006Z,27.50
2022-08-26T08:31:52.454Z,28.30
2022-08-26T08:36:36.134Z,28.50
2022-08-26T08:41:38.726Z,28.10
2022-08-26T08:46:24.657Z,28.20
2022-08-26T08:51:22.913Z,28.80
2022-08-26T08:56:17.735Z,29.40
2022-08-26T09:01:06.119Z,29.60
2022-08-26T09:05:55.713Z,30.00
2022-08-26T09:10:43.143Z,30.20
2022-08-26T09:15:33.704Z,29.80
2022-08-26T09:20:24.825Z,29.50
2022-08-26T09:25:13.713Z,29.90
2022-08-26T09:30:01.207Z,30.10
2022-08-26T09:34:56.941Z,30.60
2022-08-26T09:39:41.093Z,31.20
2022-08-26T09:44:26.208Z,31.60
2022-08-26T09:49:35.573Z,31.70
2022-08-26T09:54:30.119Z,31.30
2022-08-26T09:59:15.065Z,31.10
2022-08-26T10:04:10.027Z,31.90
2022-08-26T10:08:57.079Z,31.60
2022-08-26T10:13:46.211Z,32.00
2022-08-26T10:18:34.283Z,32.40
2022-08-26T10:23:24.372Z,32.90
2022-08-26T10:28:13.593Z,33.30
2022-08-26T10:33:04.445Z,33.70
2022-08-26T10:37:55.370Z,33.50
2022-08-26T10:42:47.782Z,33.80
2022-08-26T10:47:37.295Z,33.10
2022-08-26T10:52:30.181Z,32.90
2022-08-26T10:57:21.067Z,33.20
2022-08-26T11:02:12.958Z,33.90
2022-08-26T11:07:30.218Z,33.70
2022-08-26T11:12:49.287Z,34.60
2022-08-26T11:18:00.473Z,35.10
2022-08-26T11:22:47.898Z,34.90
2022-08-26T11:28:05.938Z,33.90
2022-08-26T11:32:52.328Z,34.20
2022-08-26T11:37:44.009Z,33.80
2022-08-26T11:42:34.584Z,35.00
2022-08-26T11:47:28.785Z,34.80
2022-08-26T11:52:20.882Z,35.50
2022-08-26T11:57:09.341Z,36.20
2022-08-26T12:01:57.676Z,35.90
2022-08-26T12:06:49.219Z,36.20
2022-08-26T12:11:36.325Z,36.30
2022-08-26T12:16:25.831Z,36.90
2022-08-26T12:21:16.549Z,37.40
2022-08-26T12:26:08.865Z,35.40
2022-08-26T12:31:04.814Z,36.10
2022-08-26T12:35:54.210Z,37.00
2022-08-26T12:40:43.779Z,36.80
2022-08-26T12:45:32.779Z,35.00
2022-08-26T12:50:20.636Z,35.20
2022-08-26T12:55:08.616Z,36.70
2022-08-26T12:59:52.281Z,34.70
2022-08-26T13:04:39.762Z,32.30
2022-08-26T13:09:32.792Z,31.30
2022-08-26T13:14:23.912Z,30.80
2022-08-26T13:19:10.281Z,31.10
2022-08-26T13:23:55.266Z,31.50
2022-08-26T13:28:39.223Z,34.30
2022-08-26T13:33:24.417Z,36.60
2022-08-26T13:38:32.923Z,37.60
2022-08-26T13:43:17.711Z,38.30
2022-08-26T13:48:01.582Z,38.20
2022-08-26T13:52:46.939Z,37.80
2022-08-26T13:57:31.618Z,38.70
2022-08-26T14:02:15.490Z,38.40
2022-08-26T14:06:59.400Z,39.00
2022-08-26T14:11:53.884Z,38.20
2022-08-26T14:16:58.861Z,37.40
2022-08-26T14:21:44.002Z,38.30
2022-08-26T14:26:29.656Z,37.00
2022-08-26T14:31:15.694Z,37.40
2022-08-26T14:36:19.603Z,36.10
2022-08-26T14:41:04.882Z,36.90
2022-08-26T14:45:48.788Z,37.10
2022-08-26T14:50:34.043Z,37.30
2022-08-26T14:55:17.945Z,35.00
2022-08-26T15:00:01.715Z,32.70
2022-08-26T15:04:45.866Z,30.90
2022-08-26T15:09:33.464Z,30.30
2022-08-26T15:14:19.559Z,29.70
2022-08-26T15:19:04.965Z,29.30
2022-08-26T15:23:49.188Z,29.30
2022-08-26T15:28:35.201Z,29.50
2022-08-26T15:33:19.522Z,31.40
2022-08-26T15:38:03.256Z,32.90
2022-08-26T15:42:47.550Z,33.90
2022-08-26T15:48:00.716Z,33.70
2022-08-26T15:52:43.796Z,32.30
2022-08-26T15:57:27.792Z,31.10
2022-08-26T16:02:11.647Z,30.20
2022-08-26T16:06:57.134Z,29.20
2022-08-26T16:11:41.451Z,28.70
2022-08-26T16:16:26.747Z,28.20
2022-08-26T16:21:13.242Z,28.00
2022-08-26T16:26:00.459Z,27.70
2022-08-26T16:30:46.618Z,27.40
2022-08-26T16:35:30.317Z,27.20
2022-08-26T16:40:14.261Z,26.90
2022-08-26T16:45:00.054Z,26.70
2022-08-26T16:49:44.544Z,26.60
2022-08-26T16:54:28.454Z,26.30
2022-08-26T16:59:12.878Z,26.30
2022-08-26T17:03:58.472Z,26.20
2022-08-26T17:08:44.123Z,25.90
2022-08-26T17:13:35.363Z,25.70
2022-08-26T17:18:20.457Z,25.60
2022-08-26T17:23:06.273Z,25.50
2022-08-26T17:27:50.600Z,25.40
2022-08-26T17:32:34.776Z,25.20
2022-08-26T17:37:19.335Z,25.00
2022-08-26T17:42:05.649Z,24.90
2022-08-26T17:46:49.828Z,24.80
2022-08-26T17:51:33.947Z,24.40
2022-08-26T17:56:21.177Z,23.40
2022-08-26T18:01:08.914Z,22.60
2022-08-26T18:05:54.496Z,21.90
2022-08-26T18:10:39.004Z,21.40
2022-08-26T18:15:24.069Z,20.80
2022-08-26T18:20:16.419Z,20.30
2022-08-26T18:25:00.685Z,19.80
2022-08-26T18:29:46.978Z,19.70
2022-08-26T18:34:31.950Z,19.70
2022-08-26T18:39:19.459Z,19.80
2022-08-26T18:44:13.283Z,19.80
2022-08-26T18:48:58.861Z,19.70
2022-08-26T18:53:42.913Z,19.50
2022-08-26T18:58:28.773Z,19.60
2022-08-26T19:03:18.410Z,19.60
2022-08-26T19:08:04.511Z,19.60
2022-08-26T19:12:51.950Z,19.70
2022-08-26T19:17:37.954Z,19.70
2022-08-26T19:22:23.042Z,19.50
2022-08-26T19:27:11.646Z,19.20
2022-08-26T19:32:00.607Z,19.00
2022-08-26T19:36:46.830Z,18.80
2022-08-26T19:41:37.204Z,18.70
2022-08-26T19:46:25.119Z,18.70
2022-08-26T19:51:10.171Z,18.60
2022-08-26T19:55:56.010Z,18.50
2022-08-26T20:00:43.167Z,18.40
2022-08-26T20:05:28.992Z,18.30
2022-08-26T20:10:14.664Z,18.40
2022-08-26T20:15:00.334Z,18.40
2022-08-26T20:20:01.889Z,18.40
2022-08-26T20:24:46.945Z,18.40
2022-08-26T20:29:31.069Z,18.40
2022-08-26T20:34:19.240Z,18.20
2022-08-26T20:39:03.239Z,18.20
2022-08-26T20:43:47.683Z,18.20
2022-08-26T20:48:32.177Z,18.10
2022-08-26T20:53:18.284Z,18.20
2022-08-26T20:58:03.111Z,18.20
2022-08-26T21:02:47.246Z,18.10
2022-08-26T21:07:30.984Z,18.30
2022-08-26T21:12:16.326Z,18.20
2022-08-26T21:16:59.911Z,18.10
2022-08-26T21:21:44.746Z,18.20
2022-08-26T21:26:28.642Z,18.10
2022-08-26T21:31:17.417Z,18.20
2022-08-26T21:36:01.480Z,18.30
2022-08-26T21:40:45.209Z,18.30
2022-08-26T21:45:28.817Z,18.20
2022-08-26T21:50:13.963Z,18.20
2022-08-26T21:55:01.327Z,18.20
2022-08-26T21:59:45.027Z,18.10
2022-08-26T22:04:29.329Z,18.00
2022-08-26T22:09:15.884Z,18.00
2022-08-26T22:13:59.645Z,17.90
2022-08-26T22:18:44.046Z,18.00
2022-08-26T22:23:28.440Z,18.00
2022-08-26T22:28:13.625Z,18.00
2022-08-26T22:32:57.412Z,18.00
2022-08-26T22:37:41.157Z,18.10
2022-08-26T22:42:24.792Z,18.00
2022-08-26T22:47:09.835Z,18.00
2022-08-26T22:51:53.464Z,18.10
2022-08-26T22:56:38.212Z,18.10
2022-08-26T23:01:21.898Z,18.00
2022-08-26T23:06:09.697Z,18.00
2022-08-26T23:10:53.852Z,17.90
2022-08-26T23:15:37.960Z,17.90
2022-08-26T23:20:25.848Z,17.90
2022-08-26T23:25:11.794Z,17.80
2022-08-26T23:29:55.612Z,17.80
2022-08-26T23:34:59.044Z,17.80
2022-08-26T23:39:42.802Z,17.80
2022-08-26T23:44:28.751Z,17.80
2022-08-26T23:49:12.433Z,17.80
2022-08-26T23:53:56.157Z,17.70
2022-08-26T23:58:39.728Z,17.70
